createdAt,value
2019-06-20T00:01:22.074Z,45.00
2019-06-20T00:03:51.868Z,45.00
2019-06-20T00:06:21.786Z,44.90
2019-06-20T00:08:51.557Z,45.20
2019-06-20T00:11:21.758Z,45.10
2019-06-20T00:13:51.994Z,45.20
2019-06-20T00:16:21.844Z,45.40
2019-06-20T00:18:51.616Z,45.00
2019-06-20T00:21:21.891Z,45.00
2019-06-20T00:23:52.131Z,45.40
2019-06-20T00:26:21.959Z,45.40
2019-06-20T00:28:51.763Z,45.00
2019-06-20T00:31:21.870Z,45.00
2019-06-20T00:33:51.635Z,45.10
2019-06-20T00:36:21.443Z,44.60
2019-06-20T00:38:51.234Z,44.60
2019-06-20T00:41:21.071Z,44.30
2019-06-20T00:43:50.829Z,44.30
2019-06-20T00:46:21.245Z,44.50
2019-06-20T00:48:51.357Z,44.60
2019-06-20T00:51:21.576Z,44.70
2019-06-20T00:53:51.864Z,44.80
2019-06-20T00:56:21.707Z,44.90
2019-06-20T00:58:51.473Z,44.90
2019-06-20T01:01:21.294Z,45.20
2019-06-20T01:03:51.543Z,45.40
2019-06-20T01:06:21.351Z,45.80
2019-06-20T01:08:51.552Z,46.00
2019-06-20T01:11:21.887Z,46.20
2019-06-20T01:13:52.845Z,46.30
2019-06-20T01:16:22.991Z,46.70
2019-06-20T01:18:52.760Z,47.30
2019-06-20T01:21:22.574Z,47.50
2019-06-20T01:23:52.786Z,47.70
2019-06-20T01:26:22.990Z,48.10
2019-06-20T01:28:53.243Z,48.60
2019-06-20T01:31:23.397Z,49.20
2019-06-20T01:33:53.702Z,49.10
2019-06-20T01:36:24.071Z,49.40
2019-06-20T01:38:53.871Z,49.70
2019-06-20T01:41:24.205Z,50.40
2019-06-20T01:43:54.017Z,50.60
2019-06-20T01:46:23.804Z,50.90
2019-06-20T01:48:54.571Z,51.40
2019-06-20T01:51:24.732Z,51.60
2019-06-20T01:53:54.544Z,51.70
2019-06-20T01:56:24.318Z,52.00
2019-06-20T01:58:54.122Z,52.30
2019-06-20T02:01:24.379Z,52.40
2019-06-20T02:03:54.186Z,52.60
2019-06-20T02:06:24.490Z,52.80
2019-06-20T02:08:54.492Z,53.00
2019-06-20T02:11:24.379Z,53.00
2019-06-20T02:14:06.726Z,53.90
2019-06-20T02:16:26.137Z,53.20
2019-06-20T02:18:55.937Z,53.50
2019-06-20T02:21:25.708Z,53.50
2019-06-20T02:23:55.515Z,53.80
2019-06-20T02:26:25.295Z,54.20
2019-06-20T02:28:55.116Z,54.20
2019-06-20T02:31:25.242Z,54.20
2019-06-20T02:33:55.092Z,54.20
2019-06-20T02:36:24.852Z,54.00
2019-06-20T02:38:54.664Z,54.10
2019-06-20T02:41:24.445Z,54.20
2019-06-20T02:43:54.246Z,54.50
2019-06-20T02:46:24.031Z,54.70
2019-06-20T02:48:53.844Z,55.00
2019-06-20T02:51:24.142Z,55.10
2019-06-20T02:53:54.924Z,55.30
2019-06-20T02:56:25.218Z,55.80
2019-06-20T02:58:55.045Z,55.80
2019-06-20T03:01:25.319Z,55.90
2019-06-20T03:03:55.132Z,56.00
2019-06-20T03:06:24.894Z,55.90
2019-06-20T03:08:55.154Z,55.80
2019-06-20T03:11:25.457Z,55.90
2019-06-20T03:13:55.284Z,56.30
2019-06-20T03:16:25.104Z,56.40
2019-06-20T03:18:54.925Z,56.60
2019-06-20T03:21:25.215Z,56.80
2019-06-20T03:23:55.013Z,57.10
2019-06-20T03:26:25.320Z,57.10
2019-06-20T03:28:55.100Z,56.90
2019-06-20T03:31:24.933Z,57.20
2019-06-20T03:33:54.726Z,57.40
2019-06-20T03:36:24.539Z,57.50
2019-06-20T03:38:54.335Z,57.40
2019-06-20T03:41:24.677Z,57.40
2019-06-20T03:43:54.500Z,58.20
2019-06-20T03:46:24.832Z,57.70
2019-06-20T03:48:54.599Z,57.70
2019-06-20T03:51:24.430Z,57.80
2019-06-20T03:53:54.193Z,57.80
2019-06-20T03:56:24.018Z,57.80
2019-06-20T03:58:53.800Z,57.70
2019-06-20T04:01:23.580Z,57.70
2019-06-20T04:03:53.816Z,57.70
2019-06-20T04:06:23.581Z,57.70
2019-06-20T04:08:53.720Z,57.60
2019-06-20T04:11:23.519Z,57.90
2019-06-20T04:13:53.651Z,58.00
2019-06-20T04:16:24.037Z,58.10
2019-06-20T04:18:53.809Z,58.10
2019-06-20T04:21:23.619Z,58.20
2019-06-20T04:23:53.548Z,58.20
2019-06-20T04:26:23.367Z,58.20
2019-06-20T04:28:53.145Z,58.20
2019-06-20T04:31:23.301Z,58.10
2019-06-20T04:33:53.425Z,58.30
2019-06-20T04:36:23.218Z,58.30
2019-06-20T04:38:53.002Z,58.50
2019-06-20T04:41:23.164Z,58.60
2019-06-20T04:43:52.948Z,58.30
2019-06-20T04:46:28.239Z,58.50
2019-06-20T04:48:58.519Z,58.40
2019-06-20T04:51:28.322Z,58.50
2019-06-20T04:53:58.069Z,58.70
2019-06-20T04:56:27.880Z,58.90
2019-06-20T04:58:57.683Z,59.00
2019-06-20T05:01:28.032Z,59.10
2019-06-20T05:03:57.821Z,59.40
2019-06-20T05:06:28.262Z,59.20
2019-06-20T05:08:58.039Z,59.20
2019-06-20T05:11:28.427Z,59.30
2019-06-20T05:13:58.697Z,59.30
2019-06-20T05:16:28.506Z,59.20
2019-06-20T05:18:59.114Z,59.40
2019-06-20T05:21:29.880Z,59.50
2019-06-20T05:24:00.535Z,59.60
2019-06-20T05:26:32.102Z,59.60
2019-06-20T05:29:05.387Z,59.60
2019-06-20T05:31:34.550Z,59.50
2019-06-20T05:34:04.444Z,59.50
2019-06-20T05:36:34.451Z,59.30
2019-06-20T05:39:04.719Z,59.30
2019-06-20T05:41:35.499Z,59.50
2019-06-20T05:44:06.086Z,59.50
2019-06-20T05:46:48.611Z,59.60
2019-06-20T05:49:19.424Z,59.80
2019-06-20T05:51:49.237Z,59.70
2019-06-20T05:54:19.470Z,59.60
2019-06-20T05:56:49.632Z,59.70
2019-06-20T05:59:19.513Z,59.60
2019-06-20T06:01:50.287Z,59.40
2019-06-20T06:04:21.607Z,59.20
2019-06-20T06:06:51.502Z,59.40
2019-06-20T06:09:22.496Z,59.20
2019-06-20T06:11:52.325Z,59.30
2019-06-20T06:14:22.125Z,59.20
2019-06-20T06:16:51.909Z,59.10
2019-06-20T06:19:21.710Z,59.20
2019-06-20T06:21:52.034Z,59.00
2019-06-20T06:24:21.858Z,58.70
2019-06-20T06:26:51.641Z,58.80
2019-06-20T06:29:21.517Z,58.30
2019-06-20T06:31:51.326Z,58.80
2019-06-20T06:34:22.146Z,58.90
2019-06-20T06:36:52.692Z,59.10
2019-06-20T06:39:23.016Z,59.20
2019-06-20T06:41:52.790Z,59.50
2019-06-20T06:44:22.602Z,59.60
2019-06-20T06:46:57.571Z,59.60
2019-06-20T06:49:23.824Z,59.60
2019-06-20T06:51:54.714Z,59.70
2019-06-20T06:54:24.519Z,59.80
2019-06-20T06:56:54.722Z,59.60
2019-06-20T06:59:24.881Z,59.50
2019-06-20T07:01:54.649Z,59.60
2019-06-20T07:04:24.467Z,60.10
2019-06-20T07:06:54.269Z,59.70
2019-06-20T07:09:24.680Z,59.30
2019-06-20T07:11:54.844Z,59.00
2019-06-20T07:14:25.240Z,58.90
2019-06-20T07:17:00.286Z,59.00
2019-06-20T07:19:26.467Z,58.90
2019-06-20T07:21:56.240Z,58.10
2019-06-20T07:24:26.038Z,57.80
2019-06-20T07:26:55.817Z,57.50
2019-06-20T07:29:26.042Z,57.70
2019-06-20T07:31:56.655Z,57.60
2019-06-20T07:34:26.868Z,57.70
2019-06-20T07:36:56.653Z,57.70
2019-06-20T07:39:26.473Z,57.80
2019-06-20T07:41:56.198Z,58.60
2019-06-20T07:44:26.996Z,58.00
2019-06-20T07:46:57.271Z,58.10
2019-06-20T07:49:27.080Z,58.30
2019-06-20T07:51:57.905Z,58.70
2019-06-20T07:54:27.714Z,58.20
2019-06-20T07:56:57.500Z,58.80
2019-06-20T07:59:28.959Z,57.80
2019-06-20T08:01:59.127Z,58.00
2019-06-20T08:04:28.929Z,58.60
2019-06-20T08:06:58.733Z,58.60
2019-06-20T08:09:43.990Z,57.80
2019-06-20T08:12:00.944Z,57.60
2019-06-20T08:14:31.196Z,58.00
2019-06-20T08:17:01.430Z,58.70
2019-06-20T08:19:31.241Z,57.70
2019-06-20T08:22:01.016Z,58.90
2019-06-20T08:24:31.229Z,59.00
2019-06-20T08:27:03.074Z,58.70
2019-06-20T08:29:32.502Z,58.40
2019-06-20T08:32:02.793Z,58.50
2019-06-20T08:34:33.756Z,58.40
2019-06-20T08:37:04.372Z,58.00
2019-06-20T08:39:35.989Z,57.50
2019-06-20T08:42:06.709Z,57.80
2019-06-20T08:44:36.914Z,57.40
2019-06-20T08:47:07.875Z,57.40
2019-06-20T08:49:38.041Z,57.50
2019-06-20T08:52:07.858Z,57.50
2019-06-20T08:54:38.483Z,57.60
2019-06-20T08:57:08.297Z,58.20
2019-06-20T08:59:38.074Z,58.10
2019-06-20T09:02:08.331Z,57.40
2019-06-20T09:04:38.190Z,58.20
2019-06-20T09:07:08.028Z,57.40
2019-06-20T09:09:37.796Z,58.00
2019-06-20T09:12:07.809Z,57.10
2019-06-20T09:14:38.046Z,57.20
2019-06-20T09:17:09.149Z,56.80
2019-06-20T09:19:39.439Z,56.70
2019-06-20T09:22:09.248Z,57.20
2019-06-20T09:24:39.973Z,56.80
2019-06-20T09:27:10.113Z,56.80
2019-06-20T09:29:41.939Z,57.10
2019-06-20T09:32:11.815Z,56.80
2019-06-20T09:34:41.614Z,56.60
2019-06-20T09:37:11.429Z,56.40
2019-06-20T09:39:41.248Z,56.50
2019-06-20T09:42:11.054Z,56.20
2019-06-20T09:44:41.734Z,56.20
2019-06-20T09:47:11.564Z,55.90
2019-06-20T09:49:41.992Z,55.80
2019-06-20T09:52:11.924Z,55.60
2019-06-20T09:54:41.770Z,55.40
2019-06-20T09:57:12.135Z,55.60
2019-06-20T09:59:55.904Z,55.60
2019-06-20T10:02:14.273Z,55.40
2019-06-20T10:04:44.451Z,55.90
2019-06-20T10:07:14.705Z,55.80
2019-06-20T10:09:46.657Z,55.90
2019-06-20T10:12:16.120Z,55.90
2019-06-20T10:14:46.908Z,55.90
2019-06-20T10:17:17.415Z,55.50
2019-06-20T10:19:48.301Z,55.00
2019-06-20T10:22:18.295Z,55.60
2019-06-20T10:24:49.164Z,55.30
2019-06-20T10:27:19.006Z,55.50
2019-06-20T10:29:48.953Z,54.50
2019-06-20T10:32:18.925Z,54.80
2019-06-20T10:34:50.589Z,54.50
2019-06-20T10:37:20.498Z,54.20
2019-06-20T10:39:50.341Z,54.10
2019-06-20T10:42:20.159Z,54.10
2019-06-20T10:44:52.080Z,54.00
2019-06-20T10:47:32.435Z,54.20
2019-06-20T10:49:54.208Z,53.40
2019-06-20T10:52:24.055Z,53.70
2019-06-20T10:54:53.875Z,53.70
2019-06-20T10:57:23.644Z,53.40
2019-06-20T10:59:53.456Z,53.00
2019-06-20T11:02:23.579Z,52.40
2019-06-20T11:04:53.987Z,52.30
2019-06-20T11:07:24.974Z,53.00
2019-06-20T11:09:56.126Z,52.90
2019-06-20T11:12:42.438Z,53.00
2019-06-20T11:14:59.025Z,53.60
2019-06-20T11:17:28.819Z,53.10
2019-06-20T11:19:58.651Z,52.60
2019-06-20T11:22:28.462Z,52.80
2019-06-20T11:24:58.743Z,52.70
2019-06-20T11:27:28.974Z,52.80
2019-06-20T11:29:59.136Z,52.60
2019-06-20T11:32:28.934Z,52.70
2019-06-20T11:34:59.347Z,52.90
2019-06-20T11:37:29.705Z,52.50
2019-06-20T11:39:59.583Z,53.30
2019-06-20T11:42:29.348Z,53.50
2019-06-20T11:45:00.084Z,52.80
2019-06-20T11:47:29.858Z,52.80
2019-06-20T11:49:59.733Z,53.20
2019-06-20T11:52:35.255Z,52.70
2019-06-20T11:55:02.014Z,52.60
2019-06-20T11:57:32.608Z,52.10
2019-06-20T12:00:02.768Z,52.20
2019-06-20T12:02:33.277Z,52.20
2019-06-20T12:05:03.495Z,51.60
2019-06-20T12:07:34.200Z,51.30
2019-06-20T12:10:05.087Z,51.50
2019-06-20T12:12:35.886Z,51.10
2019-06-20T12:15:07.103Z,50.50
2019-06-20T12:17:39.318Z,50.80
2019-06-20T12:20:08.528Z,51.10
2019-06-20T12:22:39.958Z,50.60
2019-06-20T12:25:10.568Z,50.80
2019-06-20T12:27:43.184Z,50.90
2019-06-20T12:30:13.615Z,51.00
2019-06-20T12:32:44.743Z,51.00
2019-06-20T12:35:15.073Z,50.70
2019-06-20T12:37:45.428Z,50.30
2019-06-20T12:40:15.297Z,50.50
2019-06-20T12:42:46.777Z,49.40
2019-06-20T12:45:16.745Z,49.50
2019-06-20T12:47:47.438Z,49.30
2019-06-20T12:50:17.362Z,49.80
2019-06-20T12:52:49.678Z,50.30
2019-06-20T12:55:19.856Z,50.70
2019-06-20T12:57:49.667Z,50.90
2019-06-20T13:00:20.507Z,51.00
2019-06-20T13:02:51.291Z,51.70
2019-06-20T13:05:21.108Z,51.00
2019-06-20T13:07:51.214Z,51.10
2019-06-20T13:10:22.659Z,51.20
2019-06-20T13:12:53.021Z,51.30
2019-06-20T13:15:23.328Z,51.00
2019-06-20T13:17:53.433Z,50.80
2019-06-20T13:20:23.754Z,50.80
2019-06-20T13:22:54.445Z,50.80
2019-06-20T13:25:24.619Z,50.90
2019-06-20T13:27:54.429Z,50.70
2019-06-20T13:30:24.243Z,50.60
2019-06-20T13:32:54.154Z,50.60
2019-06-20T13:35:23.930Z,50.70
2019-06-20T13:37:54.099Z,50.70
2019-06-20T13:40:24.352Z,50.80
2019-06-20T13:42:54.794Z,51.10
2019-06-20T13:45:25.198Z,51.30
2019-06-20T13:47:55.446Z,51.30
2019-06-20T13:50:25.298Z,51.50
2019-06-20T13:52:56.215Z,51.40
2019-06-20T13:55:25.976Z,51.60
2019-06-20T13:57:56.883Z,51.80
2019-06-20T14:00:26.783Z,51.40
2019-06-20T14:02:57.232Z,51.40
2019-06-20T14:05:27.397Z,52.10
2019-06-20T14:07:57.531Z,51.40
2019-06-20T14:10:27.554Z,51.40
2019-06-20T14:12:58.863Z,52.20
2019-06-20T14:15:28.712Z,51.70
2019-06-20T14:17:59.141Z,51.90
2019-06-20T14:20:28.938Z,51.90
2019-06-20T14:22:58.820Z,53.20
2019-06-20T14:25:28.647Z,52.70
2019-06-20T14:27:59.374Z,52.80
2019-06-20T14:30:30.143Z,52.80
2019-06-20T14:33:00.071Z,53.00
2019-06-20T14:35:30.430Z,53.10
2019-06-20T14:38:00.532Z,53.30
2019-06-20T14:40:30.353Z,53.30
2019-06-20T14:43:00.995Z,53.50
2019-06-20T14:45:31.145Z,53.50
2019-06-20T14:48:01.463Z,53.30
2019-06-20T14:50:31.239Z,53.40
2019-06-20T14:53:01.629Z,53.30
2019-06-20T14:55:31.959Z,53.60
2019-06-20T14:58:02.569Z,53.60
2019-06-20T15:00:32.498Z,53.50
2019-06-20T15:03:03.133Z,53.60
2019-06-20T15:05:34.906Z,53.70
2019-06-20T15:08:04.792Z,53.70
2019-06-20T15:10:35.105Z,53.60
2019-06-20T15:13:05.024Z,53.70
2019-06-20T15:15:34.911Z,53.70
2019-06-20T15:18:04.758Z,53.80
2019-06-20T15:20:35.010Z,53.70
2019-06-20T15:23:05.270Z,53.80
2019-06-20T15:25:36.100Z,54.00
2019-06-20T15:28:05.936Z,53.70
2019-06-20T15:30:36.571Z,53.60
2019-06-20T15:33:10.360Z,53.80
2019-06-20T15:35:40.261Z,53.90
2019-06-20T15:38:10.582Z,53.80
2019-06-20T15:40:40.581Z,53.90
2019-06-20T15:43:10.431Z,53.90
2019-06-20T15:45:41.691Z,53.70
2019-06-20T15:48:11.900Z,53.70
2019-06-20T15:50:41.747Z,53.50
2019-06-20T15:53:11.543Z,53.40
2019-06-20T15:55:41.367Z,53.50
2019-06-20T15:58:11.555Z,53.60
2019-06-20T16:00:41.379Z,53.60
2019-06-20T16:03:14.383Z,53.70
2019-06-20T16:05:42.693Z,53.80
2019-06-20T16:08:12.837Z,53.70
2019-06-20T16:10:43.605Z,53.80
2019-06-20T16:13:13.883Z,53.70
2019-06-20T16:15:44.137Z,53.90
2019-06-20T16:18:14.374Z,53.70
2019-06-20T16:20:44.220Z,53.90
2019-06-20T16:23:14.488Z,54.00
2019-06-20T16:25:44.324Z,53.80
2019-06-20T16:28:14.473Z,54.00
2019-06-20T16:30:44.682Z,53.90
2019-06-20T16:33:24.817Z,53.90
2019-06-20T16:35:47.688Z,53.80
2019-06-20T16:38:17.848Z,53.90
2019-06-20T16:40:48.589Z,53.80
2019-06-20T16:43:18.743Z,53.90
2019-06-20T16:45:48.566Z,53.90
2019-06-20T16:48:18.375Z,54.00
2019-06-20T16:50:48.229Z,54.10
2019-06-20T16:53:18.902Z,54.00
2019-06-20T16:55:50.403Z,54.00
2019-06-20T16:58:20.682Z,54.10
2019-06-20T17:00:51.089Z,54.40
2019-06-20T17:03:21.855Z,54.60
2019-06-20T17:05:52.216Z,54.50
2019-06-20T17:08:22.020Z,54.50
2019-06-20T17:10:52.761Z,54.40
2019-06-20T17:13:25.629Z,54.50
2019-06-20T17:15:55.868Z,54.70
2019-06-20T17:18:26.153Z,54.60
2019-06-20T17:20:57.212Z,54.60
2019-06-20T17:23:27.052Z,54.90
2019-06-20T17:25:57.261Z,54.90
2019-06-20T17:28:27.072Z,54.70
2019-06-20T17:30:57.454Z,55.00
2019-06-20T17:33:27.285Z,55.20
2019-06-20T17:35:57.136Z,55.60
2019-06-20T17:38:27.582Z,55.60
2019-06-20T17:40:58.462Z,55.70
2019-06-20T17:43:28.298Z,55.60
2019-06-20T17:45:58.150Z,55.80
2019-06-20T17:48:28.108Z,55.50
2019-06-20T17:50:58.917Z,55.60
2019-06-20T17:53:29.158Z,55.40
2019-06-20T17:55:59.344Z,55.30
2019-06-20T17:58:30.179Z,55.30
2019-06-20T18:01:00.044Z,55.10
2019-06-20T18:03:30.298Z,55.00
2019-06-20T18:06:01.538Z,55.00
2019-06-20T18:08:31.881Z,55.00
2019-06-20T18:11:02.193Z,54.90
2019-06-20T18:13:32.129Z,54.90
2019-06-20T18:16:02.320Z,55.00
2019-06-20T18:18:32.756Z,55.00
2019-06-20T18:21:02.636Z,54.90
2019-06-20T18:23:32.519Z,55.10
2019-06-20T18:26:03.306Z,55.20
2019-06-20T18:28:33.833Z,55.30
2019-06-20T18:31:03.687Z,55.30
2019-06-20T18:33:33.888Z,55.40
2019-06-20T18:36:03.757Z,55.20
2019-06-20T18:38:34.081Z,55.40
2019-06-20T18:41:03.899Z,55.30
2019-06-20T18:43:34.595Z,55.20
2019-06-20T18:46:04.932Z,55.30
2019-06-20T18:48:34.763Z,55.30
2019-06-20T18:51:05.462Z,55.40
2019-06-20T18:53:35.797Z,55.40
2019-06-20T18:56:05.602Z,55.20
2019-06-20T18:58:35.442Z,55.40
2019-06-20T19:01:05.273Z,55.30
2019-06-20T19:03:35.138Z,55.30
2019-06-20T19:06:05.456Z,55.40
2019-06-20T19:08:35.335Z,55.50
2019-06-20T19:11:05.691Z,55.40
2019-06-20T19:13:36.081Z,55.30
2019-06-20T19:16:06.544Z,55.50
2019-06-20T19:18:37.319Z,55.60
2019-06-20T19:21:07.320Z,55.80
2019-06-20T19:23:37.601Z,55.60
2019-06-20T19:26:08.508Z,55.70
2019-06-20T19:28:38.969Z,55.80
2019-06-20T19:31:11.277Z,55.60
2019-06-20T19:33:41.686Z,55.60
2019-06-20T19:36:11.545Z,55.80
2019-06-20T19:38:41.873Z,56.00
2019-06-20T19:41:12.180Z,56.10
2019-06-20T19:43:43.012Z,56.10
2019-06-20T19:46:13.501Z,56.10
2019-06-20T19:48:43.438Z,56.40
2019-06-20T19:51:13.294Z,56.40
2019-06-20T19:53:45.928Z,56.30
2019-06-20T19:56:15.534Z,56.40
2019-06-20T19:58:45.621Z,56.40
2019-06-20T20:01:15.537Z,56.60
2019-06-20T20:03:45.511Z,56.60
2019-06-20T20:06:15.979Z,56.70
2019-06-20T20:08:46.307Z,56.60
2019-06-20T20:11:16.162Z,56.60
2019-06-20T20:13:46.011Z,56.50
2019-06-20T20:16:15.862Z,56.60
2019-06-20T20:18:45.705Z,56.70
2019-06-20T20:21:15.988Z,56.70
2019-06-20T20:23:45.880Z,56.80
2019-06-20T20:26:16.694Z,56.80
2019-06-20T20:28:47.745Z,56.90
2019-06-20T20:31:18.116Z,56.90
2019-06-20T20:33:47.892Z,56.90
2019-06-20T20:36:24.928Z,57.00
2019-06-20T20:38:49.771Z,57.00
2019-06-20T20:41:20.431Z,57.10
2019-06-20T20:43:50.574Z,57.20
2019-06-20T20:46:20.394Z,57.10
2019-06-20T20:48:50.671Z,57.10
2019-06-20T20:51:20.478Z,57.30
2019-06-20T20:53:50.255Z,57.20
2019-06-20T20:56:20.142Z,57.30
2019-06-20T20:58:50.006Z,57.40
2019-06-20T21:01:26.258Z,57.40
2019-06-20T21:03:56.904Z,57.50
2019-06-20T21:06:26.823Z,57.50
2019-06-20T21:08:57.108Z,57.00
2019-06-20T21:11:27.110Z,57.60
2019-06-20T21:13:57.906Z,57.70
2019-06-20T21:16:27.787Z,57.80
2019-06-20T21:18:57.672Z,57.80
2019-06-20T21:21:27.530Z,57.70
2019-06-20T21:23:58.354Z,57.70
2019-06-20T21:26:28.252Z,57.80
2019-06-20T21:28:59.053Z,57.70
2019-06-20T21:31:28.930Z,57.70
2019-06-20T21:33:59.193Z,57.90
2019-06-20T21:36:29.410Z,57.90
2019-06-20T21:38:59.212Z,57.90
2019-06-20T21:41:29.080Z,57.90
2019-06-20T21:43:58.869Z,58.70
2019-06-20T21:46:29.207Z,57.90
2019-06-20T21:48:59.051Z,58.00
2019-06-20T21:51:28.920Z,58.10
2019-06-20T21:53:59.099Z,58.20
2019-06-20T21:56:29.352Z,58.20
2019-06-20T21:58:59.626Z,58.30
2019-06-20T22:01:29.532Z,58.30
2019-06-20T22:03:59.398Z,58.50
2019-06-20T22:06:29.699Z,58.50
2019-06-20T22:08:59.640Z,58.60
2019-06-20T22:11:30.511Z,58.60
2019-06-20T22:14:01.874Z,59.50
2019-06-20T22:16:31.837Z,58.90
2019-06-20T22:19:01.701Z,59.00
2019-06-20T22:21:31.819Z,59.10
2019-06-20T22:24:01.658Z,59.10
2019-06-20T22:26:31.930Z,59.20
2019-06-20T22:29:01.735Z,59.30
2019-06-20T22:31:31.559Z,59.50
2019-06-20T22:34:01.478Z,59.80
2019-06-20T22:36:40.350Z,59.60
2019-06-20T22:39:02.801Z,59.60
2019-06-20T22:41:32.657Z,59.70
2019-06-20T22:44:02.461Z,59.70
2019-06-20T22:46:32.650Z,59.90
2019-06-20T22:49:03.044Z,60.00
2019-06-20T22:51:33.326Z,59.80
2019-06-20T22:54:03.252Z,59.80
2019-06-20T22:56:33.189Z,59.90
2019-06-20T22:59:03.068Z,59.90
2019-06-20T23:01:32.891Z,59.90
2019-06-20T23:04:03.338Z,60.00
2019-06-20T23:06:33.132Z,60.00
2019-06-20T23:09:03.109Z,60.00
2019-06-20T23:11:32.980Z,60.70
2019-06-20T23:14:02.824Z,59.90
2019-06-20T23:16:33.109Z,60.10
2019-06-20T23:19:02.930Z,60.30
2019-06-20T23:21:33.145Z,60.30
2019-06-20T23:24:03.009Z,60.30
2019-06-20T23:26:33.253Z,59.80
2019-06-20T23:29:20.759Z,60.40
2019-06-20T23:31:51.204Z,60.40
2019-06-20T23:34:22.433Z,60.50
2019-06-20T23:36:52.277Z,60.50
2019-06-20T23:39:22.114Z,60.60
2019-06-20T23:41:52.442Z,60.60
2019-06-20T23:44:22.795Z,60.70
2019-06-20T23:46:52.617Z,60.80
2019-06-20T23:49:22.457Z,60.70
2019-06-20T23:51:58.247Z,60.70
2019-06-20T23:54:28.500Z,60.90
2019-06-20T23:56:58.320Z,60.90
2019-06-20T23:59:28.212Z,60.90
